Time;durP1;ratioP1;P1;durP2;ratioP2;P2;SDS_P1;SDS_P2;PMS_P1;PMS_P2;Temp;Humidity;BMP_temperature;BMP_pressure;BME280_temperature;BME280_humidity;BME280_pressure;Samples;Min_cycle;Max_cycle;Signal;HPM_P1;HPM_P2
2022/03/24 00:00:39;;;;;;;6.68;1.13;;;31.10;14.30;;;;;;4954648;28;20081;-71
2022/03/24 00:03:07;;;;;;;172.02;18.63;;;31.20;13.70;;;;;;4967518;28;20155;-70
2022/03/24 00:05:34;;;;;;;21.13;2.45;;;31.20;13.60;;;;;;4983691;28;20438;-73
2022/03/24 00:08:00;;;;;;;77.47;8.68;;;31.10;13.40;;;;;;4958732;28;20530;-71
2022/03/24 00:10:26;;;;;;;37.78;2.90;;;31.00;13.50;;;;;;4968465;28;20617;-71
2022/03/24 00:12:55;;;;;;;323.25;29.20;;;31.00;13.50;;;;;;4957452;28;20219;-71
2022/03/24 00:15:22;;;;;;;108.72;10.15;;;30.80;13.30;;;;;;4977107;28;20108;-68
2022/03/24 00:17:49;;;;;;;182.00;16.55;;;30.90;13.60;;;;;;4975768;28;20123;-71
2022/03/24 00:20:15;;;;;;;92.35;8.82;;;30.90;13.70;;;;;;4959536;28;20540;-71
2022/03/24 00:22:42;;;;;;;25.75;2.83;;;31.00;13.60;;;;;;4962677;28;20958;-70
2022/03/24 00:25:10;;;;;;;21.00;2.00;;;31.00;13.50;;;;;;4958314;28;20077;-70
2022/03/24 00:27:37;;;;;;;5.00;0.90;;;30.80;13.50;;;;;;4951497;28;20078;-70
2022/03/24 00:30:08;;;;;;;14.73;1.65;;;30.60;13.00;;;;;;4936812;28;20074;-70
2022/03/24 00:32:35;;;;;;;62.70;5.22;;;30.50;13.40;;;;;;4953158;28;20073;-69
2022/03/24 00:35:02;;;;;;;10.88;1.65;;;30.60;14.30;;;;;;4980242;28;20066;-72
2022/03/24 00:37:28;;;;;;;6.43;1.17;;;30.50;13.40;;;;;;4971094;28;20066;-70
2022/03/24 00:39:55;;;;;;;19.90;3.25;;;30.40;13.40;;;;;;4969374;28;20089;-72
2022/03/24 00:42:22;;;;;;;9.00;1.80;;;30.20;13.70;;;;;;4960675;28;20078;-71
2022/03/24 00:44:50;;;;;;;5.63;1.30;;;30.10;13.80;;;;;;4976407;28;20132;-69
2022/03/24 00:47:16;;;;;;;8.00;1.40;;;30.00;13.50;;;;;;4971450;28;20074;-71
2022/03/24 00:49:43;;;;;;;5.55;0.82;;;29.90;13.90;;;;;;4956278;28;21483;-71
2022/03/24 00:52:11;;;;;;;9.05;1.10;;;29.80;13.90;;;;;;4967349;28;20396;-71
2022/03/24 00:54:38;;;;;;;9.18;1.27;;;29.60;14.30;;;;;;4983968;28;20073;-74
2022/03/24 00:57:06;;;;;;;14.07;1.92;;;29.60;14.10;;;;;;4988783;28;20110;-72
2022/03/24 00:59:33;;;;;;;2.35;1.00;;;29.50;14.30;;;;;;4959949;28;20549;-75
2022/03/24 01:02:00;;;;;;;8.00;1.42;;;29.50;14.40;;;;;;4965044;28;20070;-70
2022/03/24 01:04:26;;;;;;;9.93;2.53;;;29.30;14.50;;;;;;4988250;28;20070;-73
2022/03/24 01:06:53;;;;;;;8.27;1.00;;;29.30;15.00;;;;;;4972017;28;20335;-72
2022/03/24 01:09:19;;;;;;;10.60;1.30;;;29.20;14.90;;;;;;4959675;28;20080;-71
2022/03/24 01:11:45;;;;;;;11.57;1.98;;;29.10;15.10;;;;;;4975264;28;20073;-72
2022/03/24 01:14:16;;;;;;;16.85;2.40;;;29.00;15.70;;;;;;4987170;28;20097;-73
2022/03/24 01:16:43;;;;;;;16.10;3.08;;;28.80;15.70;;;;;;4974607;28;20660;-74
2022/03/24 01:19:09;;;;;;;7.80;2.10;;;28.60;15.90;;;;;;4975685;28;20111;-72
2022/03/24 01:21:37;;;;;;;10.48;2.10;;;28.40;15.90;;;;;;4976284;28;20081;-72
2022/03/24 01:24:04;;;;;;;9.20;2.10;;;28.30;15.80;;;;;;4980709;28;20101;-74
2022/03/24 01:26:31;;;;;;;7.80;1.67;;;28.20;15.40;;;;;;4982456;28;20078;-75
2022/03/24 01:28:58;;;;;;;12.98;1.60;;;28.20;15.50;;;;;;4971944;28;20118;-74
2022/03/24 01:31:24;;;;;;;7.68;1.90;;;28.10;15.40;;;;;;4967893;28;20078;-76
2022/03/24 01:33:51;;;;;;;9.43;1.77;;;27.90;15.40;;;;;;4984957;28;20097;-74
2022/03/24 01:36:18;;;;;;;4.18;1.70;;;27.80;15.40;;;;;;4980878;28;20132;-73
2022/03/24 01:38:45;;;;;;;9.40;1.90;;;27.70;15.70;;;;;;4979932;28;20097;-74
2022/03/24 01:41:12;;;;;;;4.68;1.25;;;27.60;15.80;;;;;;4973071;28;20066;-74
2022/03/24 01:43:40;;;;;;;9.20;1.65;;;27.50;15.40;;;;;;4979849;28;20566;-68
2022/03/24 01:46:07;;;;;;;11.20;1.70;;;27.30;15.40;;;;;;4981588;28;20066;-67
2022/03/24 01:48:33;;;;;;;7.45;1.63;;;27.30;15.60;;;;;;4988162;28;20082;-66
2022/03/24 01:51:00;;;;;;;12.07;2.10;;;27.20;15.80;;;;;;4954467;28;20074;-67
2022/03/24 01:53:26;;;;;;;9.00;1.83;;;27.10;16.20;;;;;;4973400;28;20085;-68
2022/03/24 01:55:54;;;;;;;8.73;1.80;;;27.00;16.70;;;;;;4986617;28;20096;-66
2022/03/24 01:58:23;;;;;;;18.45;2.40;;;26.90;16.80;;;;;;4967841;28;20573;-70
2022/03/24 02:00:51;;;;;;;7.70;2.13;;;26.80;17.00;;;;;;4956441;28;20074;-70
2022/03/24 02:03:20;;;;;;;10.85;2.60;;;26.70;17.40;;;;;;4979358;28;20085;-68
2022/03/24 02:05:46;;;;;;;16.48;2.50;;;26.60;17.80;;;;;;4961452;28;20177;-68
2022/03/24 02:08:12;;;;;;;12.23;1.60;;;26.50;18.60;;;;;;4966986;28;20107;-68
2022/03/24 02:10:39;;;;;;;10.82;1.98;;;26.40;18.80;;;;;;4968181;28;20133;-68
2022/03/24 02:13:07;;;;;;;19.88;1.92;;;26.30;18.80;;;;;;4990926;28;20164;-68
2022/03/24 02:15:33;;;;;;;13.55;1.92;;;26.20;19.10;;;;;;4971280;28;20143;-66
2022/03/24 02:18:00;;;;;;;11.32;2.10;;;26.10;19.50;;;;;;4979307;28;20090;-69
2022/03/24 02:20:28;;;;;;;10.02;2.30;;;26.00;19.40;;;;;;4962670;28;20087;-70
2022/03/24 02:22:54;;;;;;;19.77;2.55;;;25.90;19.80;;;;;;4979725;28;20429;-68
2022/03/24 02:25:27;;;;;;;17.65;3.00;;;25.80;19.80;;;;;;4987857;28;20419;-69
2022/03/24 02:27:55;;;;;;;18.08;3.20;;;25.60;20.00;;;;;;4980442;28;20477;-67
2022/03/24 02:30:22;;;;;;;20.70;3.72;;;25.60;20.20;;;;;;4985917;28;20080;-68
2022/03/24 02:32:48;;;;;;;22.23;5.43;;;25.40;20.60;;;;;;4970052;28;20540;-69
2022/03/24 02:35:15;;;;;;;19.42;5.90;;;25.30;20.50;;;;;;4988270;28;20082;-70
2022/03/24 02:37:42;;;;;;;44.88;6.18;;;25.20;21.00;;;;;;4969504;28;20455;-66
2022/03/24 02:40:09;;;;;;;19.10;3.75;;;25.10;21.50;;;;;;4964771;28;20073;-68
2022/03/24 02:42:38;;;;;;;33.47;4.72;;;25.00;21.40;;;;;;4958238;28;20067;-73
2022/03/24 02:45:07;;;;;;;13.63;4.22;;;24.90;21.60;;;;;;4970512;28;20170;-69
2022/03/24 02:47:33;;;;;;;28.88;5.65;;;24.80;21.60;;;;;;4956701;28;20074;-71
2022/03/24 02:50:01;;;;;;;32.83;7.07;;;24.80;22.30;;;;;;4969154;28;20170;-70
2022/03/24 02:52:27;;;;;;;33.20;7.10;;;24.70;22.40;;;;;;4970048;28;20554;-68
2022/03/24 02:54:55;;;;;;;20.90;6.05;;;24.60;22.30;;;;;;4976540;28;20436;-68
2022/03/24 02:57:21;;;;;;;34.80;7.20;;;24.50;22.30;;;;;;4969197;28;20111;-65
2022/03/24 02:59:48;;;;;;;40.85;6.55;;;24.40;23.10;;;;;;4956309;28;20118;-68
2022/03/24 03:02:17;;;;;;;34.58;6.28;;;24.30;23.20;;;;;;4961087;28;20072;-65
2022/03/24 03:04:48;;;;;;;33.40;6.13;;;24.20;23.10;;;;;;4951059;28;20079;-66
2022/03/24 03:07:15;;;;;;;28.80;6.50;;;24.10;23.30;;;;;;4958053;28;20188;-66
2022/03/24 03:09:42;;;;;;;30.00;6.72;;;24.00;23.50;;;;;;4953827;28;20099;-66
2022/03/24 03:12:09;;;;;;;29.38;6.70;;;23.90;23.70;;;;;;4956596;28;20078;-65
2022/03/24 03:14:36;;;;;;;48.05;8.15;;;23.80;23.80;;;;;;4958138;28;20076;-65
2022/03/24 03:17:03;;;;;;;35.55;7.28;;;23.80;23.90;;;;;;4965902;28;20623;-67
2022/03/24 03:19:30;;;;;;;34.83;6.38;;;23.70;24.40;;;;;;4961244;28;20130;-65
2022/03/24 03:21:57;;;;;;;39.72;7.25;;;23.60;24.60;;;;;;4954968;28;20068;-68
2022/03/24 03:24:24;;;;;;;36.75;7.28;;;23.50;25.00;;;;;;4957896;28;20168;-66
2022/03/24 03:26:52;;;;;;;317.92;18.02;;;23.40;25.20;;;;;;4954933;28;20503;-66
2022/03/24 03:29:21;;;;;;;52.22;7.20;;;23.30;25.40;;;;;;4954507;28;20082;-69
2022/03/24 03:31:48;;;;;;;47.80;6.43;;;23.30;25.30;;;;;;4954382;28;20544;-68
2022/03/24 03:34:15;;;;;;;50.45;7.82;;;23.20;25.30;;;;;;4970048;28;20547;-67
2022/03/24 03:36:42;;;;;;;81.03;7.97;;;23.20;25.40;;;;;;4951288;28;20083;-68
2022/03/24 03:39:09;;;;;;;46.20;6.97;;;23.10;25.60;;;;;;4960459;28;20092;-70
2022/03/24 03:41:37;;;;;;;48.05;6.50;;;23.10;25.70;;;;;;4976877;28;20076;-68
2022/03/24 03:44:05;;;;;;;57.53;7.72;;;22.90;25.80;;;;;;4969060;28;20102;-66
2022/03/24 03:46:31;;;;;;;52.03;6.68;;;22.90;25.90;;;;;;4935379;28;20444;-68
2022/03/24 03:48:58;;;;;;;63.55;7.22;;;22.90;26.10;;;;;;4963606;28;20536;-68
2022/03/24 03:51:27;;;;;;;63.90;7.57;;;22.80;26.20;;;;;;4965796;28;20599;-67
2022/03/24 03:53:55;;;;;;;49.15;7.78;;;22.70;26.20;;;;;;4966198;28;20174;-67
2022/03/24 03:56:21;;;;;;;46.78;6.78;;;22.70;26.50;;;;;;4970066;28;20544;-67
2022/03/24 03:58:48;;;;;;;61.85;7.53;;;22.60;26.60;;;;;;4977871;28;20115;-69
2022/03/24 04:01:14;;;;;;;45.83;7.38;;;22.60;27.00;;;;;;4976052;28;20435;-67
2022/03/24 04:03:40;;;;;;;70.90;8.38;;;22.50;27.20;;;;;;4960168;28;20170;-68
2022/03/24 04:06:09;;;;;;;55.88;8.20;;;22.40;27.20;;;;;;4956867;28;20071;-66
2022/03/24 04:08:37;;;;;;;43.65;7.93;;;22.40;27.50;;;;;;4951957;28;20106;-66
2022/03/24 04:11:07;;;;;;;66.80;8.98;;;22.40;27.50;;;;;;4960904;28;20098;-67
2022/03/24 04:13:38;;;;;;;41.72;7.43;;;22.40;27.60;;;;;;4981342;28;20138;-66
2022/03/24 04:16:06;;;;;;;45.13;7.68;;;22.30;27.50;;;;;;4976814;28;20142;-68
2022/03/24 04:18:32;;;;;;;46.83;7.32;;;22.20;27.30;;;;;;4982469;28;20099;-69
2022/03/24 04:20:59;;;;;;;49.22;7.25;;;22.20;27.60;;;;;;4980784;28;20087;-69
2022/03/24 04:23:26;;;;;;;40.92;6.63;;;22.10;27.50;;;;;;4962190;28;20439;-65
2022/03/24 04:25:52;;;;;;;39.17;6.88;;;22.10;28.00;;;;;;4972035;28;20189;-64
2022/03/24 04:28:19;;;;;;;58.35;8.25;;;22.00;26.90;;;;;;4975042;28;20083;-66
2022/03/24 04:30:45;;;;;;;42.00;6.85;;;22.00;27.10;;;;;;4966035;28;20078;-65
2022/03/24 04:33:12;;;;;;;51.28;7.57;;;21.80;27.20;;;;;;4981190;28;20080;-65
2022/03/24 04:35:38;;;;;;;75.57;7.78;;;21.80;27.40;;;;;;4961484;28;20095;-63
2022/03/24 04:38:07;;;;;;;61.60;7.25;;;21.80;28.50;;;;;;4983741;28;20129;-66
2022/03/24 04:40:33;;;;;;;39.50;5.95;;;21.80;28.30;;;;;;4978241;28;21428;-69
2022/03/24 04:43:00;;;;;;;52.75;7.78;;;21.70;28.20;;;;;;4977761;28;20078;-68
2022/03/24 04:45:27;;;;;;;56.40;8.05;;;21.70;28.60;;;;;;4982121;28;20110;-68
2022/03/24 04:47:54;;;;;;;49.88;7.78;;;21.60;28.30;;;;;;4960592;28;20087;-68
2022/03/24 04:50:20;;;;;;;59.95;7.65;;;21.50;28.20;;;;;;4972222;28;20415;-68
2022/03/24 04:52:48;;;;;;;67.72;9.80;;;21.50;28.50;;;;;;4969059;28;20509;-66
2022/03/24 04:55:15;;;;;;;62.38;9.65;;;21.50;28.70;;;;;;4978370;28;20085;-66
2022/03/24 04:57:42;;;;;;;75.85;9.95;;;21.50;28.50;;;;;;4944223;28;20110;-64
2022/03/24 05:00:10;;;;;;;99.57;12.63;;;21.40;28.10;;;;;;4969470;28;20745;-67
2022/03/24 05:02:37;;;;;;;108.07;13.60;;;21.40;28.00;;;;;;4957258;28;20539;-65
2022/03/24 05:05:05;;;;;;;91.88;14.45;;;21.40;27.90;;;;;;4965132;28;20083;-66
2022/03/24 05:07:32;;;;;;;89.78;15.02;;;21.30;27.60;;;;;;4953991;28;20106;-68
2022/03/24 05:09:58;;;;;;;102.78;14.27;;;21.30;27.60;;;;;;4970756;28;20155;-65
2022/03/24 05:12:25;;;;;;;98.68;13.13;;;21.20;27.70;;;;;;4952720;28;20075;-63
2022/03/24 05:14:51;;;;;;;86.00;13.55;;;21.10;28.00;;;;;;4967150;28;20136;-66
2022/03/24 05:17:18;;;;;;;83.15;12.98;;;21.10;28.60;;;;;;4968100;28;20548;-66
2022/03/24 05:19:47;;;;;;;92.57;12.63;;;21.10;28.80;;;;;;4969556;28;20103;-66
2022/03/24 05:22:14;;;;;;;82.88;13.13;;;21.00;28.70;;;;;;4976301;28;20145;-67
2022/03/24 05:24:41;;;;;;;103.40;15.20;;;20.90;28.70;;;;;;4954739;28;20068;-65
2022/03/24 05:27:08;;;;;;;125.47;14.68;;;20.90;28.80;;;;;;4962198;28;20194;-67
2022/03/24 05:29:35;;;;;;;132.68;15.50;;;20.80;29.10;;;;;;4975974;28;20442;-65
2022/03/24 05:32:01;;;;;;;97.43;16.38;;;20.90;29.60;;;;;;4975570;28;20662;-65
2022/03/24 05:34:28;;;;;;;96.90;16.45;;;20.90;29.70;;;;;;4955476;28;20075;-71
2022/03/24 05:36:54;;;;;;;108.45;16.85;;;20.80;29.10;;;;;;4989700;28;20134;-67
2022/03/24 05:39:21;;;;;;;92.28;15.68;;;20.70;28.90;;;;;;4973176;28;20095;-66
2022/03/24 05:41:47;;;;;;;100.55;16.45;;;20.60;28.90;;;;;;4964526;28;20086;-65
2022/03/24 05:44:13;;;;;;;;;;;20.60;29.00;;;;;;4974279;28;20372;-66
2022/03/24 05:46:44;;;;;;;106.13;16.17;;;20.50;29.30;;;;;;4982349;28;19966;-65
2022/03/24 05:49:16;;;;;;;129.45;16.60;;;20.50;29.60;;;;;;4986201;28;20678;-66
2022/03/24 05:51:46;;;;;;;228.30;24.55;;;20.50;29.90;;;;;;4957049;28;20087;-67
2022/03/24 05:54:14;;;;;;;216.05;24.17;;;20.50;30.10;;;;;;4984165;28;20239;-70
2022/03/24 05:56:46;;;;;;;192.55;24.10;;;20.50;30.00;;;;;;4955543;28;20093;-67
2022/03/24 05:59:13;;;;;;;122.88;17.70;;;20.40;30.00;;;;;;4955954;28;20087;-68
2022/03/24 06:01:41;;;;;;;125.80;18.70;;;20.40;30.00;;;;;;4982126;28;20093;-67
2022/03/24 06:04:08;;;;;;;124.97;19.02;;;20.30;29.90;;;;;;4963899;28;20162;-67
2022/03/24 06:06:37;;;;;;;103.82;17.83;;;20.30;30.00;;;;;;4953678;28;20121;-70
2022/03/24 06:09:06;;;;;;;114.10;18.52;;;20.20;30.00;;;;;;4972775;28;20098;-68
2022/03/24 06:11:35;;;;;;;112.85;18.83;;;20.20;30.10;;;;;;4985824;28;20186;-68
2022/03/24 06:14:12;;;;;;;120.32;21.15;;;20.10;30.50;;;;;;4953877;28;20080;-71
2022/03/24 06:16:40;;;;;;;132.32;22.25;;;20.20;31.70;;;;;;4957334;28;20073;-69
2022/03/24 06:19:09;;;;;;;138.75;23.20;;;20.20;31.10;;;;;;4979090;28;20087;-69
2022/03/24 06:21:37;;;;;;;119.88;21.40;;;20.10;31.10;;;;;;4945305;28;20154;-69
2022/03/24 06:24:05;;;;;;;115.00;20.38;;;19.90;31.00;;;;;;4964012;28;20079;-70
2022/03/24 06:26:31;;;;;;;131.00;23.85;;;19.90;31.00;;;;;;4974901;28;20431;-68
2022/03/24 06:28:58;;;;;;;109.55;22.58;;;19.90;30.50;;;;;;4973682;28;20111;-68
2022/03/24 06:31:25;;;;;;;120.47;25.38;;;19.80;30.20;;;;;;4971566;28;20074;-70
2022/03/24 06:33:51;;;;;;;112.13;22.85;;;19.80;30.30;;;;;;4970940;28;20079;-68
2022/03/24 06:36:17;;;;;;;;;;;19.80;30.60;;;;;;4983860;28;20095;-71
2022/03/24 06:38:44;;;;;;;116.75;23.95;;;19.80;30.80;;;;;;4982563;28;19979;-69
2022/03/24 06:41:14;;;;;;;123.20;27.42;;;19.70;30.80;;;;;;4973384;28;20075;-68
2022/03/24 06:43:41;;;;;;;102.97;23.58;;;19.70;31.20;;;;;;4954733;28;20091;-68
2022/03/24 06:46:08;;;;;;;126.05;24.38;;;19.70;31.30;;;;;;4965863;28;20086;-68
2022/03/24 06:48:35;;;;;;;106.70;24.25;;;19.70;32.20;;;;;;4977275;28;20078;-68
2022/03/24 06:51:01;;;;;;;105.05;23.55;;;19.70;32.00;;;;;;4965757;28;20095;-72
2022/03/24 06:53:28;;;;;;;117.90;25.10;;;19.70;31.70;;;;;;4981567;28;20203;-71
2022/03/24 06:55:55;;;;;;;118.25;24.40;;;19.60;31.70;;;;;;4971109;28;20087;-68
2022/03/24 06:58:22;;;;;;;110.43;24.55;;;19.60;32.00;;;;;;4972501;28;20205;-69
2022/03/24 07:00:49;;;;;;;110.95;23.33;;;19.50;32.10;;;;;;4988069;28;20541;-69
2022/03/24 07:03:15;;;;;;;102.45;23.65;;;19.50;32.20;;;;;;4981200;28;20095;-69
2022/03/24 07:05:41;;;;;;;;;;;19.40;32.10;;;;;;4962953;28;20093;-71
2022/03/24 07:08:08;;;;;;;125.00;25.13;;;19.40;32.90;;;;;;4984144;28;20065;-67
2022/03/24 07:10:34;;;;;;;119.93;26.23;;;19.40;33.70;;;;;;4956734;28;20089;-70
2022/03/24 07:13:01;;;;;;;117.07;26.95;;;19.40;33.80;;;;;;4968652;28;20081;-69
2022/03/24 07:15:27;;;;;;;;;;;19.50;33.20;;;;;;4979811;28;20142;-70
2022/03/24 07:17:53;;;;;;;106.28;26.33;;;19.40;33.00;;;;;;4981507;28;20066;-70
2022/03/24 07:20:21;;;;;;;127.85;28.20;;;19.30;33.20;;;;;;4967915;28;20083;-68
2022/03/24 07:22:48;;;;;;;124.22;27.67;;;19.30;32.60;;;;;;4969782;28;20451;-70
2022/03/24 07:25:14;;;;;;;;;;;19.20;32.70;;;;;;4972798;28;20075;-70
2022/03/24 07:27:42;;;;;;;126.50;28.25;;;19.20;33.10;;;;;;4982660;28;19958;-69
2022/03/24 07:30:10;;;;;;;121.72;26.75;;;19.10;33.10;;;;;;4961728;28;20078;-68
2022/03/24 07:32:37;;;;;;;124.32;30.10;;;19.10;33.10;;;;;;4972276;28;20081;-68
2022/03/24 07:35:05;;;;;;;126.65;28.85;;;19.00;33.80;;;;;;4981336;28;20067;-68
2022/03/24 07:37:32;;;;;;;130.88;28.55;;;19.00;33.30;;;;;;4957860;28;20520;-69
2022/03/24 07:39:58;;;;;;;127.40;27.73;;;19.00;33.50;;;;;;4961272;28;20182;-72
2022/03/24 07:42:25;;;;;;;136.82;29.98;;;19.00;33.90;;;;;;4987614;28;20137;-69
2022/03/24 07:44:51;;;;;;;119.53;29.35;;;19.00;34.40;;;;;;4985316;28;20074;-69
2022/03/24 07:47:18;;;;;;;126.45;29.08;;;19.00;34.10;;;;;;4969122;28;20074;-72
2022/03/24 07:49:46;;;;;;;140.80;30.75;;;18.90;33.90;;;;;;4984825;28;20193;-70
2022/03/24 07:52:14;;;;;;;145.55;30.00;;;18.90;33.50;;;;;;4987371;28;20256;-70
2022/03/24 07:54:50;;;;;;;124.93;31.40;;;18.80;33.40;;;;;;4970698;28;20110;-68
2022/03/24 07:57:17;;;;;;;149.63;31.33;;;18.80;33.80;;;;;;4975044;28;20110;-70
2022/03/24 07:59:43;;;;;;;133.35;29.30;;;18.70;33.90;;;;;;4959302;28;20094;-71
2022/03/24 08:02:09;;;;;;;;;;;18.70;34.00;;;;;;4989586;28;20085;-69
2022/03/24 08:04:36;;;;;;;141.23;31.30;;;18.70;34.70;;;;;;4957710;28;19989;-70
2022/03/24 08:07:02;;;;;;;;;;;18.70;35.10;;;;;;4979807;28;20615;-68
2022/03/24 08:09:32;;;;;;;148.95;31.55;;;18.70;35.20;;;;;;4964234;28;19998;-68
2022/03/24 08:11:59;;;;;;;120.47;29.42;;;18.70;35.20;;;;;;4955481;28;20158;-68
2022/03/24 08:14:27;;;;;;;138.63;30.45;;;18.60;35.10;;;;;;4984283;28;20531;-69
2022/03/24 08:16:54;;;;;;;140.00;29.83;;;18.60;34.50;;;;;;4981892;28;20542;-71
2022/03/24 08:19:20;;;;;;;;;;;18.50;34.50;;;;;;4979595;28;20118;-68
2022/03/24 08:21:46;;;;;;;160.65;31.00;;;18.50;34.50;;;;;;4972340;28;19968;-68
2022/03/24 08:24:12;;;;;;;;;;;18.40;34.60;;;;;;4961926;28;20685;-69
2022/03/24 08:26:38;;;;;;;118.93;28.58;;;18.40;35.00;;;;;;4961013;28;20015;-70
2022/03/24 08:29:05;;;;;;;135.80;29.08;;;18.40;35.30;;;;;;4971387;28;20091;-69
2022/03/24 08:31:33;;;;;;;117.25;27.73;;;18.30;35.20;;;;;;4980346;28;20574;-70
2022/03/24 08:33:59;;;;;;;143.98;28.83;;;18.30;35.20;;;;;;4970239;28;20082;-68
2022/03/24 08:36:25;;;;;;;;;;;18.30;35.30;;;;;;4958507;28;20091;-68
2022/03/24 08:38:52;;;;;;;137.88;29.23;;;18.20;35.30;;;;;;4979094;28;19981;-70
2022/03/24 08:41:18;;;;;;;136.18;29.55;;;18.30;35.70;;;;;;4964729;28;20130;-70
2022/03/24 08:43:46;;;;;;;123.28;25.05;;;18.20;35.60;;;;;;4976690;28;20083;-70
2022/03/24 08:46:13;;;;;;;109.10;24.98;;;18.20;35.70;;;;;;4945811;28;20437;-68
2022/03/24 08:48:39;;;;;;;141.63;27.05;;;18.10;35.60;;;;;;4963089;28;20085;-70
2022/03/24 08:51:06;;;;;;;123.47;27.00;;;18.10;35.70;;;;;;4955828;28;20087;-69
2022/03/24 08:53:32;;;;;;;109.70;24.85;;;18.20;36.20;;;;;;4963905;28;20625;-70
2022/03/24 08:55:58;;;;;;;124.47;26.33;;;18.20;36.30;;;;;;4986370;28;20091;-70
2022/03/24 08:58:24;;;;;;;;;;;18.20;36.70;;;;;;4971897;28;20121;-70
2022/03/24 09:00:51;;;;;;;108.70;24.65;;;18.10;36.50;;;;;;4983988;28;20473;-68
2022/03/24 09:03:21;;;;;;;117.40;24.73;;;18.00;36.50;;;;;;4976006;28;20071;-68
2022/03/24 09:05:47;;;;;;;118.78;24.75;;;18.00;36.50;;;;;;4956520;28;20087;-68
2022/03/24 09:08:14;;;;;;;106.00;25.67;;;17.90;36.60;;;;;;4987225;28;20210;-70
2022/03/24 09:10:40;;;;;;;115.38;24.75;;;18.00;36.70;;;;;;4982306;28;20087;-68
2022/03/24 09:13:09;;;;;;;105.43;25.20;;;17.90;36.60;;;;;;4956167;28;20138;-68
2022/03/24 09:15:38;;;;;;;122.57;26.35;;;17.90;37.00;;;;;;4986184;28;20074;-68
2022/03/24 09:18:05;;;;;;;137.45;27.55;;;18.00;37.50;;;;;;4969437;28;20083;-68
2022/03/24 09:20:31;;;;;;;;;;;18.00;37.50;;;;;;4983138;28;20068;-67
2022/03/24 09:22:57;;;;;;;117.13;24.88;;;17.90;38.00;;;;;;4978492;28;20340;-67
2022/03/24 09:25:24;;;;;;;;;;;17.90;37.90;;;;;;4973917;28;20100;-68
2022/03/24 09:27:50;;;;;;;111.82;25.65;;;17.80;37.40;;;;;;4958805;28;19959;-70
2022/03/24 09:30:18;;;;;;;109.85;24.30;;;17.70;37.20;;;;;;4956891;28;20086;-68
2022/03/24 09:32:47;;;;;;;104.10;26.88;;;17.70;37.70;;;;;;4964889;28;20087;-70
2022/03/24 09:35:13;;;;;;;101.13;25.05;;;17.70;38.00;;;;;;4982140;28;20079;-68
2022/03/24 09:37:40;;;;;;;98.68;25.40;;;17.60;37.70;;;;;;4973908;28;20070;-67
2022/03/24 09:40:08;;;;;;;115.93;26.77;;;17.70;38.10;;;;;;4962111;28;20134;-67
2022/03/24 09:42:35;;;;;;;116.35;24.38;;;17.60;38.10;;;;;;4946226;28;20111;-68
2022/03/24 09:45:05;;;;;;;94.35;26.15;;;17.60;37.80;;;;;;4973735;28;20527;-69
2022/03/24 09:47:32;;;;;;;117.70;26.60;;;17.50;37.90;;;;;;4966161;28;20491;-68
2022/03/24 09:49:59;;;;;;;100.63;23.40;;;17.40;37.80;;;;;;4962797;28;20443;-69
2022/03/24 09:52:27;;;;;;;98.05;26.10;;;17.50;38.30;;;;;;4974456;28;20210;-70
2022/03/24 09:54:54;;;;;;;94.80;24.88;;;17.50;38.30;;;;;;4987919;28;20075;-69
2022/03/24 09:57:21;;;;;;;106.05;26.70;;;17.40;38.70;;;;;;4983613;28;20107;-68
2022/03/24 09:59:48;;;;;;;94.35;24.25;;;17.40;39.00;;;;;;4961442;28;20088;-68
2022/03/24 10:02:15;;;;;;;100.68;24.92;;;17.40;39.10;;;;;;4968438;28;20083;-68
2022/03/24 10:04:49;;;;;;;88.43;25.33;;;17.40;39.40;;;;;;4966146;28;20561;-68
2022/03/24 10:07:19;;;;;;;105.63;24.27;;;17.40;39.50;;;;;;4986920;28;20166;-68
2022/03/24 10:09:47;;;;;;;100.70;23.25;;;17.30;39.50;;;;;;4980020;28;20079;-67
2022/03/24 10:12:22;;;;;;;97.43;25.75;;;17.30;39.40;;;;;;4958506;28;20083;-68
2022/03/24 10:14:59;;;;;;;95.82;26.10;;;17.20;39.00;;;;;;4966102;28;20085;-69
2022/03/24 10:17:26;;;;;;;84.35;23.98;;;17.20;38.80;;;;;;4983140;28;20106;-67
2022/03/24 10:20:00;;;;;;;106.00;24.38;;;17.10;38.50;;;;;;4962098;28;20087;-68
2022/03/24 10:22:27;;;;;;;96.40;25.95;;;17.10;38.50;;;;;;4993088;28;20086;-68
2022/03/24 10:24:54;;;;;;;88.78;23.80;;;17.10;38.80;;;;;;4963892;28;20079;-70
2022/03/24 10:27:22;;;;;;;84.43;23.95;;;17.10;39.10;;;;;;4987076;28;20165;-69
2022/03/24 10:29:54;;;;;;;87.68;25.83;;;17.10;39.50;;;;;;4979122;28;20495;-71
2022/03/24 10:32:22;;;;;;;93.88;25.40;;;17.10;39.90;;;;;;4971517;28;20542;-69
2022/03/24 10:34:50;;;;;;;92.40;24.52;;;17.10;40.20;;;;;;4939955;28;20083;-69
2022/03/24 10:37:19;;;;;;;107.53;25.17;;;17.10;39.90;;;;;;4970442;28;21045;-68
2022/03/24 10:40:07;;;;;;;101.50;25.08;;;17.10;40.50;;;;;;4982892;28;20087;-71
2022/03/24 10:42:36;;;;;;;89.60;24.20;;;17.00;40.10;;;;;;4963977;28;20081;-71
2022/03/24 10:45:20;;;;;;;96.95;26.50;;;16.90;39.80;;;;;;4953969;28;20440;-70
2022/03/24 10:47:55;;;;;;;101.30;25.20;;;16.80;39.80;;;;;;4986215;28;20071;-70
2022/03/24 10:50:39;;;;;;;92.05;25.20;;;16.80;40.00;;;;;;4980104;28;20098;-69
2022/03/24 10:53:06;;;;;;;80.60;24.25;;;16.80;39.80;;;;;;4971233;28;20497;-67
2022/03/24 10:55:32;;;;;;;95.47;25.33;;;16.80;39.80;;;;;;4978115;28;20086;-68
2022/03/24 10:58:00;;;;;;;;;;;16.80;39.40;;;;;;4985687;28;20115;-70
2022/03/24 11:00:26;;;;;;;;;;;16.80;39.70;;;;;;4970881;28;20437;-68
2022/03/24 11:02:52;;;;;;;95.40;25.38;;;16.80;39.60;;;;;;4963886;28;20002;-67
2022/03/24 11:05:19;;;;;;;89.55;27.50;;;16.70;39.40;;;;;;4970791;28;20539;-67
2022/03/24 11:07:54;;;;;;;83.90;26.58;;;16.70;39.00;;;;;;4961215;28;20075;-67
2022/03/24 11:10:22;;;;;;;101.30;26.95;;;16.70;39.70;;;;;;4982902;28;20081;-68
2022/03/24 11:12:54;;;;;;;100.72;30.77;;;16.60;40.00;;;;;;4959620;28;20620;-66
2022/03/24 11:15:22;;;;;;;130.88;38.85;;;16.60;40.40;;;;;;4959086;28;20075;-65
2022/03/24 11:17:48;;;;;;;157.52;48.22;;;16.60;40.50;;;;;;4974111;28;20083;-67
2022/03/24 11:20:20;;;;;;;;;;;16.60;40.40;;;;;;4979628;28;20111;-66
2022/03/24 11:22:58;;;;;;;149.73;47.08;;;16.60;40.40;;;;;;4976133;28;20444;-66
2022/03/24 11:25:26;;;;;;;173.13;50.20;;;16.50;40.00;;;;;;4970953;28;20083;-67
2022/03/24 11:27:54;;;;;;;174.30;50.85;;;16.50;40.50;;;;;;4984948;28;20589;-69
2022/03/24 11:30:22;;;;;;;158.90;47.25;;;16.50;41.10;;;;;;4966824;28;20079;-69
2022/03/24 11:32:52;;;;;;;155.07;49.50;;;16.50;40.50;;;;;;4959725;28;20139;-65
2022/03/24 11:35:20;;;;;;;161.13;49.03;;;16.50;40.30;;;;;;4987635;28;20440;-66
2022/03/24 11:37:49;;;;;;;173.07;48.13;;;16.50;40.50;;;;;;4962617;28;20087;-69
2022/03/24 11:40:35;;;;;;;162.38;47.42;;;16.50;41.30;;;;;;4990207;28;20145;-67
2022/03/24 11:43:28;;;;;;;172.20;47.65;;;16.40;40.70;;;;;;4963438;28;20088;-67
2022/03/24 11:46:04;;;;;;;155.85;44.95;;;16.40;40.80;;;;;;4963790;28;20086;-67
2022/03/24 11:48:42;;;;;;;165.73;48.75;;;16.30;41.00;;;;;;4972659;28;20074;-66
2022/03/24 11:51:23;;;;;;;168.75;49.92;;;16.20;40.80;;;;;;4961993;28;20141;-68
2022/03/24 11:54:05;;;;;;;194.93;52.08;;;16.20;40.80;;;;;;4961560;28;20081;-68
2022/03/24 11:56:34;;;;;;;186.32;51.33;;;16.20;41.30;;;;;;4986483;28;20089;-65
2022/03/24 11:59:01;;;;;;;193.15;49.55;;;16.20;41.50;;;;;;4965868;28;20146;-65
2022/03/24 12:01:32;;;;;;;175.52;50.83;;;16.20;41.20;;;;;;4968215;28;20115;-66
2022/03/24 12:04:01;;;;;;;173.68;49.97;;;16.20;41.50;;;;;;4952361;28;20074;-65
2022/03/24 12:09:11;;;;;;;189.80;49.75;;;16.10;40.90;;;;;;4980670;28;20110;-67
2022/03/24 12:11:59;;;;;;;195.77;53.40;;;16.10;41.30;;;;;;4981511;28;20145;-66
2022/03/24 12:14:32;;;;;;;182.68;52.15;;;16.10;42.10;;;;;;4956608;28;20087;-68
2022/03/24 12:17:18;;;;;;;196.20;51.90;;;16.10;42.50;;;;;;4980835;28;20442;-64
2022/03/24 12:19:50;;;;;;;188.18;50.58;;;16.10;42.40;;;;;;4977201;28;20547;-66
2022/03/24 12:22:25;;;;;;;190.35;51.22;;;16.00;42.60;;;;;;4962392;28;20199;-69
2022/03/24 12:24:53;;;;;;;183.90;52.90;;;16.00;42.50;;;;;;4978669;28;20074;-68
2022/03/24 12:27:20;;;;;;;169.30;49.47;;;16.00;42.40;;;;;;4984674;28;20075;-66
2022/03/24 12:30:15;;;;;;;186.52;50.10;;;16.00;41.90;;;;;;4963203;28;20072;-65
2022/03/24 12:32:43;;;;;;;171.93;49.72;;;16.00;42.40;;;;;;4956208;28;20071;-66
2022/03/24 12:35:47;;;;;;;206.02;51.42;;;15.90;42.40;;;;;;4962230;28;20075;-66
2022/03/24 12:38:30;;;;;;;181.68;53.45;;;16.00;42.70;;;;;;4980622;28;20446;-67
2022/03/24 12:41:05;;;;;;;170.45;52.03;;;15.90;42.30;;;;;;4963960;28;20171;-66